Terminal Aerodrome Forecast
Issued by NWS Tuscon, AZ

Home | Current Version | Previous Version | Text Only | Print | Product List | Glossary On
Versions: 1 2 3 4 5 6 7 8 9 10 11 12
000
FTUS45 KTWC 201720
TAFTUS
TAF
KTUS 201720Z 2018/2118 VRB03KT P6SM BKN200
     FM202100 32006KT P6SM BKN200
     FM210600 15006KT P6SM BKN200=

USA.gov is the U.S. government's official web portal to all federal, state and local government web resources and services.